General Enrique Mosconi, Argentina
Current Conditions -  °F | °C
As of 8:00 AM on Sunday 21 Dec 2014 (Local Time) from SLTJ Reporting Station
Broken Clouds Broken Clouds  
Wind Chill: 72°   Ceiling: 20000
Heat Index: 72°   Visibility: 6mi
Dew Point: 63°   Wind: 6mph
Humidity: 73%   Direction: 120°ESE
Pressure: 29.88"   Gusts: NA
Location:  22.6°S, 63.82°W
Report Text: SLTJ 211100Z 12005KT 9999 FEW023 BKN200 22/17 Q1012
Loading
Personal Weather Stations






























Interactive Weather Map New forecast layout! Learn more

10-Day Weather Forecast

Advertisements
Track Severe Weather on mobile